Terminal Aerodrome Forecast
Issued by NWS

Home | Current Version | Previous Version | Text Only | Print | Product List | Glossary On
Versions: 1 2 3 4 5 6 7 8 9 10 11 12 13 14 15 16 17 18 19 20 21 22 23 24 25 26 27 28 29 30 31
000
FTUS46 KEKA 211100
TAFCEC
TAF
KCEC 211138Z 2112/2212 09003KT 6SM BR SCT002
      TEMPO 2113/2115 1/2SM FG VV002
     FM211500 VRB06KT 1SM BR BKN002
     FM211700 33011KT P6SM SCT006
     FM220900 VRB03KT 6SM BR BKN005=

USA.gov is the U.S. government's official web portal to all federal, state and local government web resources and services.